This is the latest recevied weather packets stored in our database for station/object NE8U. If no packets are shown the sender has not sent any weather packets the latest 1 day(s).
| Time | Temp. | Humidity | Pressure | Rain* | Wind** | Luminosity | Snow |
|---|---|---|---|---|---|---|---|
| 1778075957 | 15° C | 58% | 1017.4 hPa | 0 mm | - | 154 W/m² | - |
| 1778075350 | 15.56° C | 55% | 1017.3 hPa | 0 mm | - | 119 W/m² | - |
| 1778074440 | 14.44° C | 59% | 1017.2 hPa | 0 mm | - | 51 W/m² | - |
| 1778073532 | 12.78° C | 62% | 1017.2 hPa | 0 mm | - | 36 W/m² | - |
| 1778073228 | 12.78° C | 63% | 1017.2 hPa | 0 mm | - | 32 W/m² | - |
| 1778072018 | 11.11° C | 67% | 1017.1 hPa | 0 mm | - | 13 W/m² | - |
| 1778071110 | 11.11° C | 69% | 1017 hPa | 0 mm | - | 4 W/m² | - |
| 1778070202 | 11.11° C | 72% | 1016.8 hPa | 0 mm | - | 0 W/m² | - |
| 1778069900 | 11.11° C | 71% | 1016.7 hPa | 0 mm | - | 0 W/m² | - |
| 1778069597 | 11.67° C | 69% | 1016.7 hPa | 0 mm | - | 0 W/m² | - |
| 1778068992 | 11.67° C | 68% | 1016.6 hPa | 0 mm | - | 0 W/m² | - |
| 1778068085 | 11.67° C | 67% | 1016.7 hPa | 0 mm | - | 0 W/m² | - |
| 1778067481 | 11.67° C | 67% | 1016.5 hPa | 0 mm | - | 0 W/m² | - |
| 1778067178 | 11.67° C | 68% | 1016.6 hPa | 0 mm | - | 0 W/m² | - |
| 1778066572 | 11.67° C | 70% | 1016.4 hPa | 0 mm | - | 0 W/m² | - |
| 1778064755 | 12.22° C | 68% | 1016 hPa | 0 mm | - | 0 W/m² | - |
| 1778064150 | 11.67° C | 68% | 1016 hPa | 0 mm | - | 0 W/m² | - |
| 1778063847 | 11.67° C | 67% | 1016 hPa | 0 mm | - | 0 W/m² | - |
| 1778063544 | 11.67° C | 66% | 1016 hPa | 0 mm | - | 0 W/m² | - |
| 1778063242 | 11.67° C | 67% | 1016 hPa | 0 mm | - | 0 W/m² | - |
| 1778062940 | 11.11° C | 70% | 1016 hPa | 0 mm | - | 0 W/m² | - |
| 1778062636 | 11.11° C | 72% | 1015.9 hPa | 0 mm | - | 0 W/m² | - |
| 1778062333 | 11.11° C | 73% | 1015.9 hPa | 0 mm | - | 0 W/m² | - |
| 1778062031 | 11.11° C | 73% | 1015.9 hPa | 0 mm | - | 0 W/m² | - |
| 1778061729 | 11.67° C | 73% | 1015.7 hPa | 0 mm | - | 0 W/m² | - |
* Rain latest hour (hover to see other rain measurements)
** Current wind speed in m/s (hover to see current wind gust speed)